createdAt,value
2023-05-03T00:00:19.601Z,1.00
2023-05-03T00:01:21.283Z,1.00
2023-05-03T00:02:22.913Z,1.00
2023-05-03T00:03:25.439Z,1.00
2023-05-03T00:04:27.040Z,1.00
2023-05-03T00:05:28.686Z,1.00
2023-05-03T00:06:31.468Z,99.90
2023-05-03T00:07:33.122Z,99.90
2023-05-03T00:08:34.680Z,99.90
2023-05-03T00:09:36.331Z,1.00
2023-05-03T00:10:37.911Z,1.00
2023-05-03T00:11:39.498Z,1.00
2023-05-03T00:12:42.130Z,1.00
2023-05-03T00:13:43.771Z,1.00
2023-05-03T00:14:46.161Z,1.00
2023-05-03T00:15:47.743Z,99.90
2023-05-03T00:16:49.313Z,99.90
2023-05-03T00:17:51.402Z,1.00
2023-05-03T00:18:53.016Z,99.90
2023-05-03T00:19:56.400Z,99.90
2023-05-03T00:20:59.612Z,97.90
2023-05-03T00:22:01.328Z,99.90
2023-05-03T00:23:02.871Z,99.90
2023-05-03T00:24:05.174Z,1.00
2023-05-03T00:25:08.920Z,1.00
2023-05-03T00:26:10.563Z,1.00
2023-05-03T00:27:12.115Z,17.80
2023-05-03T00:28:13.667Z,99.90
2023-05-03T00:29:15.803Z,99.90
2023-05-03T00:30:18.948Z,99.90
2023-05-03T00:31:20.721Z,99.90
2023-05-03T00:32:23.231Z,99.90
2023-05-03T00:33:24.989Z,1.00
2023-05-03T00:34:26.547Z,1.00
2023-05-03T00:35:28.208Z,1.00
2023-05-03T00:36:31.042Z,1.00
2023-05-03T00:37:32.678Z,99.90
2023-05-03T00:38:34.258Z,1.00
2023-05-03T00:39:36.274Z,1.00
2023-05-03T00:40:37.908Z,1.00
2023-05-03T00:41:39.929Z,99.90
2023-05-03T00:42:41.541Z,99.90
2023-05-03T00:43:43.117Z,99.90
2023-05-03T00:44:44.816Z,99.90
2023-05-03T00:45:47.550Z,99.90
2023-05-03T00:46:49.790Z,99.90
2023-05-03T00:47:51.475Z,99.90
2023-05-03T00:48:53.337Z,99.90
2023-05-03T00:49:54.913Z,1.00
2023-05-03T00:51:00.900Z,1.00
2023-05-03T00:52:02.757Z,1.00
2023-05-03T00:53:04.836Z,1.00
2023-05-03T00:54:06.577Z,99.90
2023-05-03T00:55:09.608Z,99.90
2023-05-03T00:56:11.933Z,91.00
2023-05-03T00:57:13.929Z,99.90
2023-05-03T00:58:15.665Z,99.90
2023-05-03T00:59:18.003Z,99.90
2023-05-03T01:00:20.333Z,1.00
2023-05-03T01:01:22.489Z,1.00
2023-05-03T01:02:24.863Z,1.00
2023-05-03T01:03:26.729Z,1.00
2023-05-03T01:06:04.914Z,1.00
2023-05-03T01:07:36.288Z,99.90
2023-05-03T01:09:51.720Z,99.90
2023-05-03T01:11:04.718Z,99.90
2023-05-03T01:12:12.237Z,1.00
2023-05-03T01:13:28.506Z,69.50
2023-05-03T01:14:46.862Z,1.00
2023-05-03T01:16:04.679Z,99.90
2023-05-03T01:17:14.282Z,99.90
2023-05-03T01:18:21.645Z,1.00
2023-05-03T01:19:39.675Z,1.00
2023-05-03T01:20:46.731Z,1.00
2023-05-03T01:21:56.725Z,1.00
2023-05-03T01:22:58.238Z,1.00
2023-05-03T01:24:13.596Z,99.90
2023-05-03T01:25:16.165Z,1.00
2023-05-03T01:26:22.446Z,1.00
2023-05-03T01:27:24.013Z,99.90
2023-05-03T01:28:25.652Z,1.00
2023-05-03T01:29:27.232Z,1.00
2023-05-03T01:30:31.018Z,1.00
2023-05-03T01:31:47.307Z,1.00
2023-05-03T01:33:07.873Z,1.00
2023-05-03T01:34:16.875Z,1.00
2023-05-03T01:35:55.991Z,1.00
2023-05-03T01:36:59.869Z,1.00
2023-05-03T01:38:02.887Z,99.90
2023-05-03T01:39:22.143Z,1.00
2023-05-03T01:40:26.586Z,1.00
2023-05-03T01:41:29.468Z,1.00
2023-05-03T01:42:32.377Z,1.00
2023-05-03T01:43:34.848Z,1.00
2023-05-03T01:44:37.413Z,1.00
2023-05-03T01:45:39.941Z,16.10
2023-05-03T01:46:43.998Z,1.00
2023-05-03T01:47:45.698Z,1.00
2023-05-03T01:48:47.695Z,1.00
2023-05-03T01:49:49.297Z,1.00
2023-05-03T01:50:50.837Z,1.00
2023-05-03T01:51:52.834Z,90.20
2023-05-03T01:52:54.422Z,1.00
2023-05-03T01:53:56.330Z,1.00
2023-05-03T01:54:59.425Z,1.00
2023-05-03T01:56:00.968Z,1.00
2023-05-03T01:57:03.005Z,99.90
2023-05-03T01:58:04.675Z,99.90
2023-05-03T01:59:06.288Z,99.90
2023-05-03T02:00:09.125Z,1.00
2023-05-03T02:01:10.738Z,1.00
2023-05-03T02:02:12.337Z,1.00
2023-05-03T02:03:14.056Z,1.00
2023-05-03T02:04:15.744Z,99.90
2023-05-03T02:06:19.455Z,1.00
2023-05-03T02:07:21.051Z,1.00
2023-05-03T02:08:22.586Z,1.00
2023-05-03T02:09:24.925Z,1.00
2023-05-03T02:10:26.701Z,1.00
2023-05-03T02:11:28.281Z,99.90
2023-05-03T02:12:29.916Z,1.00
2023-05-03T02:13:31.475Z,1.00
2023-05-03T02:14:33.120Z,99.90
2023-05-03T02:15:34.666Z,99.90
2023-05-03T02:16:36.288Z,30.80
2023-05-03T02:17:38.618Z,1.00
2023-05-03T02:18:40.230Z,1.00
2023-05-03T02:19:41.795Z,1.00
2023-05-03T02:20:46.588Z,1.00
2023-05-03T02:21:48.178Z,99.90
2023-05-03T02:22:49.859Z,1.00
2023-05-03T02:23:51.431Z,1.00
2023-05-03T02:24:53.001Z,99.90
2023-05-03T02:25:54.536Z,99.90
2023-05-03T02:26:56.242Z,70.60
2023-05-03T02:27:58.023Z,99.90
2023-05-03T02:28:59.600Z,1.00
2023-05-03T02:30:01.971Z,1.00
2023-05-03T02:31:06.213Z,1.00
2023-05-03T02:32:07.823Z,5.00
2023-05-03T02:33:09.675Z,1.00
2023-05-03T02:34:11.762Z,1.00
2023-05-03T02:35:13.338Z,99.90
2023-05-03T02:36:14.909Z,1.00
2023-05-03T02:37:16.831Z,19.30
2023-05-03T02:38:18.464Z,1.00
2023-05-03T02:39:19.994Z,13.80
2023-05-03T02:40:21.853Z,50.60
2023-05-03T02:41:23.476Z,99.90
2023-05-03T02:42:25.090Z,1.00
2023-05-03T02:43:26.683Z,1.00
2023-05-03T02:44:28.277Z,1.00
2023-05-03T02:45:29.947Z,1.00
2023-05-03T02:46:31.595Z,1.00
2023-05-03T02:47:33.197Z,1.00
2023-05-03T02:48:34.960Z,35.70
2023-05-03T02:49:36.499Z,1.00
2023-05-03T02:50:39.818Z,1.00
2023-05-03T02:51:41.821Z,1.00
2023-05-03T02:52:43.428Z,1.00
2023-05-03T02:53:44.995Z,99.90
2023-05-03T02:54:47.136Z,1.00
2023-05-03T02:55:50.508Z,1.00
2023-05-03T02:56:52.042Z,1.00
2023-05-03T02:57:53.593Z,1.00
2023-05-03T02:58:55.528Z,1.00
2023-05-03T02:59:57.114Z,1.00
2023-05-03T03:00:58.727Z,1.00
2023-05-03T03:02:00.478Z,1.00
2023-05-03T03:03:02.203Z,1.00
2023-05-03T03:04:04.332Z,99.90
2023-05-03T03:05:06.296Z,1.00
2023-05-03T03:06:08.019Z,99.90
2023-05-03T03:07:09.621Z,1.00
2023-05-03T03:08:11.241Z,99.90
2023-05-03T03:09:12.856Z,1.00
2023-05-03T03:10:14.590Z,1.00
2023-05-03T03:11:16.156Z,1.00
2023-05-03T03:12:17.908Z,99.90
2023-05-03T03:13:19.495Z,95.00
2023-05-03T03:14:21.071Z,1.00
2023-05-03T03:15:22.637Z,1.00
2023-05-03T03:16:24.233Z,99.90
2023-05-03T03:17:26.088Z,99.90
2023-05-03T03:18:27.656Z,99.90
2023-05-03T03:19:29.228Z,1.00
2023-05-03T03:20:30.957Z,1.00
2023-05-03T03:21:32.619Z,1.00
2023-05-03T03:22:34.297Z,1.00
2023-05-03T03:23:36.010Z,1.00
2023-05-03T03:24:37.622Z,1.00
2023-05-03T03:25:39.196Z,65.40
2023-05-03T03:26:40.797Z,99.90
2023-05-03T03:27:42.385Z,99.90
2023-05-03T03:28:43.938Z,99.90
2023-05-03T03:29:45.719Z,1.00
2023-05-03T03:30:47.377Z,1.00
2023-05-03T03:31:49.013Z,1.00
2023-05-03T03:32:50.605Z,99.90
2023-05-03T03:33:52.187Z,27.60
2023-05-03T03:34:53.846Z,99.90
2023-05-03T03:35:55.417Z,1.00
2023-05-03T03:36:56.995Z,1.00
2023-05-03T03:37:58.557Z,1.00
2023-05-03T03:39:00.338Z,1.00
2023-05-03T03:40:02.291Z,1.00
2023-05-03T03:41:04.089Z,1.00
2023-05-03T03:42:06.840Z,1.00
2023-05-03T03:43:08.578Z,99.90
2023-05-03T03:44:10.254Z,1.00
2023-05-03T03:45:12.019Z,1.00
2023-05-03T03:46:13.582Z,99.90
2023-05-03T03:47:15.246Z,99.90
2023-05-03T03:48:17.027Z,1.00
2023-05-03T03:49:18.627Z,1.00
2023-05-03T03:50:20.414Z,1.00
2023-05-03T03:51:21.973Z,27.20
2023-05-03T03:52:24.088Z,1.00
2023-05-03T03:53:25.644Z,99.90
2023-05-03T03:54:27.203Z,99.90
2023-05-03T03:55:28.956Z,1.00
2023-05-03T03:56:30.605Z,1.00
2023-05-03T03:57:32.257Z,99.90
2023-05-03T03:58:34.397Z,99.90
2023-05-03T03:59:35.957Z,1.00
2023-05-03T04:00:37.986Z,1.00
2023-05-03T04:01:39.593Z,99.90
2023-05-03T04:02:41.459Z,99.90
2023-05-03T04:03:46.862Z,99.90
2023-05-03T04:04:48.461Z,1.00
2023-05-03T04:05:50.986Z,99.90
2023-05-03T04:06:52.653Z,1.00
2023-05-03T04:07:54.373Z,1.00
2023-05-03T04:08:55.919Z,71.30
2023-05-03T04:09:58.806Z,1.00
2023-05-03T04:11:02.369Z,45.00
2023-05-03T04:12:04.476Z,1.00
2023-05-03T04:13:06.050Z,99.90
2023-05-03T04:14:07.673Z,1.00
2023-05-03T04:15:10.732Z,1.00
2023-05-03T04:16:12.515Z,1.00
2023-05-03T04:17:14.364Z,1.00
2023-05-03T04:18:16.098Z,1.00
2023-05-03T04:19:18.563Z,1.00
2023-05-03T04:20:21.430Z,1.00
2023-05-03T04:21:23.052Z,1.00
2023-05-03T04:22:24.658Z,94.70
2023-05-03T04:23:26.216Z,8.10
2023-05-03T04:24:30.488Z,1.00
2023-05-03T04:25:32.145Z,1.00
2023-05-03T04:26:34.503Z,1.00
2023-05-03T04:27:36.658Z,31.80
2023-05-03T04:28:39.348Z,99.90
2023-05-03T04:29:41.482Z,99.90
2023-05-03T04:30:47.293Z,1.00
2023-05-03T04:31:48.970Z,1.00
2023-05-03T04:32:54.216Z,1.00
2023-05-03T04:33:56.645Z,99.90
2023-05-03T04:34:58.618Z,1.00
2023-05-03T04:36:00.297Z,1.00
2023-05-03T04:37:01.884Z,1.00
2023-05-03T04:38:04.114Z,99.90
2023-05-03T04:39:06.695Z,1.00
2023-05-03T04:40:09.678Z,1.00
2023-05-03T04:41:11.903Z,1.00
2023-05-03T04:42:15.346Z,1.00
2023-05-03T04:43:16.919Z,1.00
2023-05-03T04:44:18.743Z,1.00
2023-05-03T04:45:20.998Z,1.00
2023-05-03T04:46:22.671Z,1.00
2023-05-03T04:47:25.261Z,1.00
2023-05-03T04:48:26.848Z,1.00
2023-05-03T04:49:28.554Z,1.00
2023-05-03T04:50:30.088Z,1.00
2023-05-03T04:51:31.890Z,1.00
2023-05-03T04:52:33.642Z,1.00
2023-05-03T04:53:35.175Z,1.00
2023-05-03T04:54:36.797Z,1.00
2023-05-03T04:55:38.341Z,1.00
2023-05-03T04:56:39.938Z,1.00
2023-05-03T04:57:42.302Z,1.00
2023-05-03T04:58:44.425Z,1.00
2023-05-03T04:59:46.159Z,1.00
2023-05-03T05:00:47.881Z,1.00
2023-05-03T05:01:49.697Z,1.00
2023-05-03T05:02:51.354Z,1.00
2023-05-03T05:03:53.608Z,1.00
2023-05-03T05:04:55.419Z,1.00
2023-05-03T05:05:57.007Z,1.00
2023-05-03T05:06:59.393Z,1.00
2023-05-03T05:08:01.101Z,1.00
2023-05-03T05:09:02.863Z,1.00
2023-05-03T05:10:05.221Z,1.00
2023-05-03T05:11:08.037Z,99.90
2023-05-03T05:12:09.623Z,57.50
2023-05-03T05:13:11.384Z,41.70
2023-05-03T05:14:13.336Z,1.00
2023-05-03T05:15:15.052Z,99.90
2023-05-03T05:16:17.471Z,99.90
2023-05-03T05:17:19.064Z,99.90
2023-05-03T05:18:20.695Z,99.90
2023-05-03T05:19:22.321Z,99.90
2023-05-03T05:20:23.909Z,99.90
2023-05-03T05:21:25.568Z,99.90
2023-05-03T05:22:27.154Z,45.30
2023-05-03T05:23:29.220Z,1.30
2023-05-03T05:24:30.846Z,99.90
2023-05-03T05:25:32.400Z,1.00
2023-05-03T05:26:34.112Z,1.00
2023-05-03T05:27:36.199Z,99.90
2023-05-03T05:28:37.776Z,1.00
2023-05-03T05:29:39.321Z,1.00
2023-05-03T05:30:41.417Z,99.90
2023-05-03T05:31:43.181Z,99.90
2023-05-03T05:32:44.825Z,1.00
2023-05-03T05:33:46.622Z,99.90
2023-05-03T05:34:52.974Z,1.00
2023-05-03T05:35:54.549Z,1.00
2023-05-03T05:36:56.756Z,1.00
2023-05-03T05:37:58.291Z,1.00
2023-05-03T05:39:00.051Z,1.00
2023-05-03T05:40:01.851Z,99.90
2023-05-03T05:41:05.230Z,1.00
2023-05-03T05:42:08.218Z,99.90
2023-05-03T05:43:09.791Z,99.90
2023-05-03T05:44:13.198Z,1.00
2023-05-03T05:45:14.815Z,1.00
2023-05-03T05:46:16.903Z,99.90
2023-05-03T05:47:18.589Z,99.90
2023-05-03T05:48:20.600Z,1.00
2023-05-03T05:49:22.404Z,1.00
2023-05-03T05:50:24.121Z,99.90
2023-05-03T05:51:27.866Z,98.30
2023-05-03T05:52:29.549Z,99.90
2023-05-03T05:53:31.089Z,99.90
2023-05-03T05:54:32.923Z,1.00
2023-05-03T05:55:34.765Z,1.00
2023-05-03T05:56:36.389Z,99.90
2023-05-03T05:57:37.960Z,99.90
2023-05-03T05:58:39.766Z,99.90
2023-05-03T05:59:41.473Z,1.00
2023-05-03T06:00:43.107Z,1.00
2023-05-03T06:01:46.123Z,1.00
2023-05-03T06:02:48.800Z,1.00
2023-05-03T06:03:50.417Z,55.00
2023-05-03T06:04:52.095Z,1.00
2023-05-03T06:05:53.717Z,1.00
2023-05-03T06:06:55.364Z,1.00
2023-05-03T06:07:56.942Z,89.70
2023-05-03T06:08:58.664Z,99.90
2023-05-03T06:10:01.949Z,99.90
2023-05-03T06:11:03.676Z,1.00
2023-05-03T06:12:05.636Z,18.50
2023-05-03T06:13:07.208Z,99.90
2023-05-03T06:14:09.428Z,1.00
2023-05-03T06:15:11.187Z,99.90
2023-05-03T06:16:12.800Z,99.90
2023-05-03T06:17:14.402Z,1.00
2023-05-03T06:18:16.306Z,1.00
2023-05-03T06:19:17.920Z,99.90
2023-05-03T06:20:19.542Z,99.90
2023-05-03T06:21:21.954Z,99.90
2023-05-03T06:22:24.492Z,99.90
2023-05-03T06:23:28.017Z,99.90
2023-05-03T06:24:32.656Z,1.00
2023-05-03T06:25:36.106Z,1.00
2023-05-03T06:26:37.647Z,1.00
2023-05-03T06:27:39.267Z,99.90
2023-05-03T06:28:41.063Z,99.90
2023-05-03T06:29:44.350Z,99.90
2023-05-03T06:30:52.400Z,99.90
2023-05-03T06:31:54.006Z,1.00
2023-05-03T06:32:55.638Z,99.90
2023-05-03T06:33:57.262Z,32.90
2023-05-03T06:34:59.670Z,99.90
2023-05-03T06:36:01.924Z,15.00
2023-05-03T06:37:03.614Z,1.00
2023-05-03T06:38:05.176Z,1.00
2023-05-03T06:39:06.725Z,1.00
2023-05-03T06:40:08.749Z,99.90
2023-05-03T06:41:10.390Z,1.00
2023-05-03T06:42:12.022Z,1.00
2023-05-03T06:43:13.675Z,1.00
2023-05-03T06:44:15.292Z,1.00
2023-05-03T06:45:18.336Z,1.00
2023-05-03T06:46:20.472Z,99.90
2023-05-03T06:47:22.252Z,1.00
2023-05-03T06:48:23.984Z,1.00
2023-05-03T06:49:25.607Z,1.00
2023-05-03T06:50:27.666Z,1.00
2023-05-03T06:51:30.886Z,1.00
2023-05-03T06:52:32.747Z,1.00
2023-05-03T06:53:34.309Z,1.00
2023-05-03T06:54:35.863Z,1.00
2023-05-03T06:55:37.538Z,99.90
2023-05-03T06:56:39.328Z,1.00
2023-05-03T06:57:41.262Z,1.00
2023-05-03T06:58:42.850Z,99.90
2023-05-03T06:59:44.408Z,82.80
2023-05-03T07:00:46.725Z,33.90
2023-05-03T07:01:48.368Z,1.00
2023-05-03T07:02:50.077Z,1.00
2023-05-03T07:03:51.809Z,1.00
2023-05-03T07:04:53.528Z,1.00
2023-05-03T07:05:55.109Z,1.00
2023-05-03T07:06:57.052Z,1.00
2023-05-03T07:07:58.700Z,99.90
2023-05-03T07:09:00.352Z,1.00
2023-05-03T07:10:02.551Z,99.90
2023-05-03T07:11:04.624Z,99.90
2023-05-03T07:12:06.480Z,99.90
2023-05-03T07:13:08.044Z,99.90
2023-05-03T07:14:09.602Z,99.90
2023-05-03T07:15:11.323Z,99.90
2023-05-03T07:16:12.951Z,99.90
2023-05-03T07:17:14.555Z,99.90
2023-05-03T07:18:16.646Z,99.90
2023-05-03T07:19:18.267Z,99.90
2023-05-03T07:20:20.037Z,99.90
2023-05-03T07:21:21.581Z,1.00
2023-05-03T07:22:25.976Z,1.00
2023-05-03T07:23:27.530Z,1.00
2023-05-03T07:24:29.401Z,1.00
2023-05-03T07:25:31.512Z,1.00
2023-05-03T07:26:33.477Z,1.00
2023-05-03T07:27:35.129Z,1.00
2023-05-03T07:28:36.719Z,1.00
2023-05-03T07:29:38.283Z,1.00
2023-05-03T07:30:40.825Z,1.00
2023-05-03T07:31:44.286Z,1.00
2023-05-03T07:32:46.076Z,1.00
2023-05-03T07:33:47.894Z,1.00
2023-05-03T07:34:49.840Z,1.00
2023-05-03T07:35:51.457Z,1.00
2023-05-03T07:36:53.055Z,1.00
2023-05-03T07:37:54.938Z,1.00
2023-05-03T07:38:58.610Z,1.00
2023-05-03T07:40:00.637Z,1.00
2023-05-03T07:41:03.436Z,1.00
2023-05-03T07:42:05.264Z,1.00
2023-05-03T07:43:07.046Z,1.00
2023-05-03T07:44:08.689Z,1.00
2023-05-03T07:45:10.564Z,1.00
2023-05-03T07:46:12.177Z,1.00
2023-05-03T07:47:13.904Z,1.00
2023-05-03T07:48:15.696Z,99.90
2023-05-03T07:49:17.376Z,99.90
2023-05-03T07:50:19.055Z,99.90
2023-05-03T07:51:20.892Z,99.90
2023-05-03T07:52:22.581Z,99.90
2023-05-03T07:53:24.201Z,99.90
2023-05-03T07:54:25.768Z,99.90
2023-05-03T07:55:28.286Z,99.90
2023-05-03T07:56:30.703Z,99.90
2023-05-03T07:57:32.897Z,99.90
2023-05-03T07:58:39.923Z,99.90
2023-05-03T07:59:43.389Z,99.90
2023-05-03T08:00:44.960Z,99.90
2023-05-03T08:01:46.574Z,99.90
2023-05-03T08:02:48.210Z,99.90
2023-05-03T08:03:53.103Z,93.70
2023-05-03T08:04:55.169Z,99.90
2023-05-03T08:05:57.028Z,88.00
2023-05-03T08:07:04.378Z,68.30
2023-05-03T08:08:06.483Z,1.00
2023-05-03T08:09:08.938Z,1.00
2023-05-03T08:10:11.033Z,1.00
2023-05-03T08:11:12.633Z,1.00
2023-05-03T08:12:14.183Z,1.00
2023-05-03T08:13:15.787Z,1.00
2023-05-03T08:14:17.406Z,1.00
2023-05-03T08:15:19.201Z,1.00
2023-05-03T08:16:21.372Z,1.00
2023-05-03T08:17:23.360Z,1.00
2023-05-03T08:18:25.610Z,1.00
2023-05-03T08:19:27.191Z,1.00
2023-05-03T08:20:29.433Z,1.00
2023-05-03T08:21:31.126Z,1.00
2023-05-03T08:22:32.680Z,1.00
2023-05-03T08:23:34.248Z,1.00
2023-05-03T08:24:36.072Z,1.00
2023-05-03T08:25:37.770Z,1.00
2023-05-03T08:26:40.795Z,1.00
2023-05-03T08:27:42.359Z,1.00
2023-05-03T08:28:43.929Z,1.00
2023-05-03T08:29:45.514Z,1.00
2023-05-03T08:30:47.190Z,1.00
2023-05-03T08:31:48.962Z,1.00
2023-05-03T08:32:51.507Z,1.00
2023-05-03T08:33:53.252Z,1.00
2023-05-03T08:34:55.967Z,1.00
2023-05-03T08:35:57.519Z,1.00
2023-05-03T08:36:59.241Z,1.00
2023-05-03T08:38:00.858Z,1.00
2023-05-03T08:39:06.373Z,1.00
2023-05-03T08:40:11.807Z,1.00
2023-05-03T08:41:30.794Z,1.00
2023-05-03T08:42:33.681Z,1.00
2023-05-03T08:43:41.161Z,1.00
2023-05-03T08:44:48.352Z,1.00
2023-05-03T08:45:49.975Z,1.00
2023-05-03T08:46:51.881Z,1.00
2023-05-03T08:47:56.494Z,1.00
2023-05-03T08:48:59.870Z,1.00
2023-05-03T08:50:05.035Z,1.00
2023-05-03T08:51:09.854Z,1.00
2023-05-03T08:52:13.987Z,1.00
2023-05-03T08:53:15.799Z,1.00
2023-05-03T08:54:20.518Z,1.00
2023-05-03T08:55:22.155Z,1.00
2023-05-03T08:56:40.672Z,1.00
2023-05-03T08:57:42.306Z,1.00
2023-05-03T08:58:44.435Z,1.00
2023-05-03T08:59:50.287Z,1.00
2023-05-03T09:00:51.899Z,1.00
2023-05-03T09:01:55.043Z,1.00
2023-05-03T09:02:56.879Z,1.00
2023-05-03T09:03:58.612Z,1.00
2023-05-03T09:05:01.015Z,1.00
2023-05-03T09:06:03.160Z,1.00
2023-05-03T09:07:09.468Z,1.00
2023-05-03T09:08:12.700Z,1.00
2023-05-03T09:09:14.382Z,1.00
2023-05-03T09:10:25.243Z,1.00
2023-05-03T09:11:31.302Z,1.00
2023-05-03T09:12:37.622Z,1.00
2023-05-03T09:13:41.106Z,1.00
2023-05-03T09:14:46.466Z,99.90
2023-05-03T09:15:54.692Z,99.90
2023-05-03T09:16:56.544Z,1.00
2023-05-03T09:18:19.511Z,1.00
2023-05-03T09:19:21.607Z,1.00
2023-05-03T09:20:36.446Z,1.00
2023-05-03T09:21:48.688Z,99.90
2023-05-03T09:22:51.752Z,99.90
2023-05-03T09:23:53.495Z,99.90
2023-05-03T09:24:56.377Z,99.90
2023-05-03T09:25:58.991Z,99.90
2023-05-03T09:27:17.379Z,99.90
2023-05-03T09:28:20.036Z,99.90
2023-05-03T09:29:32.728Z,99.90
2023-05-03T09:30:34.304Z,99.90
2023-05-03T09:31:37.266Z,99.90
2023-05-03T09:32:48.377Z,99.90
2023-05-03T09:33:50.094Z,99.90
2023-05-03T09:34:51.884Z,99.90
2023-05-03T09:35:58.727Z,99.90
2023-05-03T09:37:00.274Z,99.90
2023-05-03T09:38:01.909Z,99.90
2023-05-03T09:39:16.835Z,99.90
2023-05-03T09:40:18.917Z,99.90
2023-05-03T09:41:28.896Z,99.90
2023-05-03T09:42:30.696Z,99.90
2023-05-03T09:43:32.613Z,99.90
2023-05-03T09:44:41.932Z,99.90
2023-05-03T09:45:43.561Z,99.90
2023-05-03T09:47:07.475Z,99.90
2023-05-03T09:48:09.067Z,99.90
2023-05-03T09:49:10.680Z,99.90
2023-05-03T09:50:12.604Z,99.90
2023-05-03T09:51:14.242Z,99.90
2023-05-03T09:52:15.894Z,99.90
2023-05-03T09:53:21.407Z,99.90
2023-05-03T09:54:25.685Z,99.90
2023-05-03T09:55:28.043Z,99.90
2023-05-03T09:56:31.066Z,99.90
2023-05-03T09:57:32.998Z,99.90
2023-05-03T09:58:36.054Z,99.90
2023-05-03T09:59:38.871Z,99.90
2023-05-03T10:00:43.795Z,99.90
2023-05-03T10:01:45.596Z,99.90
2023-05-03T10:02:50.485Z,99.90
2023-05-03T10:03:54.234Z,99.90
2023-05-03T10:04:57.318Z,99.90
2023-05-03T10:06:00.650Z,99.90
2023-05-03T10:07:07.768Z,99.90
2023-05-03T10:08:10.675Z,99.90
2023-05-03T10:09:31.282Z,99.90
2023-05-03T10:10:35.379Z,99.90
2023-05-03T10:11:36.958Z,99.90
2023-05-03T10:12:38.811Z,99.90
2023-05-03T10:13:40.588Z,99.90
2023-05-03T10:14:46.884Z,99.90
2023-05-03T10:15:57.674Z,99.90
2023-05-03T10:17:04.303Z,99.90
2023-05-03T10:18:08.864Z,99.90
2023-05-03T10:19:39.721Z,99.90
2023-05-03T10:20:52.618Z,99.90
2023-05-03T10:22:08.070Z,99.90
2023-05-03T10:23:12.209Z,99.90
2023-05-03T10:24:16.185Z,99.90
2023-05-03T10:25:17.999Z,99.90
2023-05-03T10:26:19.792Z,99.90
2023-05-03T10:27:21.499Z,99.90
2023-05-03T10:28:23.064Z,99.90
2023-05-03T10:29:49.142Z,99.90
2023-05-03T10:30:50.970Z,99.90
2023-05-03T10:31:52.878Z,99.90
2023-05-03T10:32:55.163Z,99.90
2023-05-03T10:33:56.822Z,99.90
2023-05-03T10:35:04.317Z,99.90
2023-05-03T10:36:10.247Z,99.90
2023-05-03T10:37:11.809Z,99.90
2023-05-03T10:38:14.886Z,99.90
2023-05-03T10:39:18.251Z,99.90
2023-05-03T10:40:21.617Z,99.90
2023-05-03T10:41:27.222Z,99.90
2023-05-03T10:42:30.893Z,99.90
2023-05-03T10:43:35.567Z,99.90
2023-05-03T10:44:51.195Z,99.90
2023-05-03T10:45:52.778Z,99.90
2023-05-03T10:46:54.837Z,99.90
2023-05-03T10:48:20.204Z,99.90
2023-05-03T10:49:23.714Z,99.90
2023-05-03T10:50:26.215Z,99.90
2023-05-03T10:51:28.912Z,99.90
2023-05-03T10:52:36.376Z,99.90
2023-05-03T10:53:40.811Z,99.90
2023-05-03T10:54:42.476Z,99.90
2023-05-03T10:56:07.938Z,99.90
2023-05-03T10:57:10.297Z,99.90
2023-05-03T10:58:14.358Z,99.90
2023-05-03T10:59:16.208Z,99.90
2023-05-03T11:00:27.818Z,99.90
2023-05-03T11:01:29.771Z,99.90
2023-05-03T11:02:38.267Z,99.90
2023-05-03T11:04:13.329Z,99.90
2023-05-03T11:05:18.520Z,99.90
2023-05-03T11:06:36.301Z,99.90
2023-05-03T11:07:38.322Z,99.90
2023-05-03T11:08:40.179Z,99.90
2023-05-03T11:09:41.770Z,99.90
2023-05-03T11:10:44.747Z,99.90
2023-05-03T11:11:46.571Z,99.90
2023-05-03T11:12:48.669Z,99.90
2023-05-03T11:13:53.768Z,99.90
2023-05-03T11:14:55.351Z,99.90
2023-05-03T11:15:56.979Z,99.90
2023-05-03T11:16:59.098Z,99.90
2023-05-03T11:18:01.101Z,99.90
2023-05-03T11:19:03.453Z,99.90
2023-05-03T11:20:08.650Z,99.90
2023-05-03T11:21:11.459Z,99.90
2023-05-03T11:22:13.076Z,99.90
2023-05-03T11:23:15.045Z,99.90
2023-05-03T11:24:16.786Z,99.90
2023-05-03T11:25:19.070Z,99.90
2023-05-03T11:26:25.845Z,99.90
2023-05-03T11:27:27.775Z,99.90
2023-05-03T11:28:29.336Z,99.90
2023-05-03T11:29:32.650Z,99.90
2023-05-03T11:30:35.907Z,99.90
2023-05-03T11:31:37.641Z,99.90
2023-05-03T11:32:39.647Z,99.90
2023-05-03T11:33:41.758Z,99.90
2023-05-03T11:34:43.537Z,99.90
2023-05-03T11:35:45.193Z,99.90
2023-05-03T11:36:46.918Z,99.90
2023-05-03T11:37:48.710Z,99.90
2023-05-03T11:38:50.386Z,99.90
2023-05-03T11:39:51.978Z,99.90
2023-05-03T11:40:53.568Z,99.90
2023-05-03T11:42:03.137Z,99.90
2023-05-03T11:43:05.623Z,99.90
2023-05-03T11:44:15.923Z,99.90
2023-05-03T11:45:23.236Z,99.90
2023-05-03T11:46:27.570Z,99.90
2023-05-03T11:47:29.489Z,99.90
2023-05-03T11:48:33.481Z,99.90
2023-05-03T11:49:35.314Z,99.90
2023-05-03T11:50:47.128Z,99.90
2023-05-03T11:51:51.603Z,99.90
2023-05-03T11:52:56.176Z,99.90
2023-05-03T11:54:06.842Z,99.90
2023-05-03T11:55:16.210Z,99.90
2023-05-03T11:56:22.721Z,99.90
2023-05-03T11:57:25.487Z,99.90
2023-05-03T11:58:27.339Z,99.90
2023-05-03T11:59:39.443Z,99.90
2023-05-03T12:00:48.554Z,99.90
2023-05-03T12:01:53.598Z,99.90
2023-05-03T12:02:58.728Z,99.90
2023-05-03T12:04:05.597Z,99.90
2023-05-03T12:05:09.678Z,99.90
2023-05-03T12:06:13.387Z,99.90
2023-05-03T12:08:30.729Z,99.90
2023-05-03T12:09:35.351Z,99.90
2023-05-03T12:10:38.349Z,99.90
2023-05-03T12:11:44.674Z,99.90
2023-05-03T12:12:54.099Z,99.90
2023-05-03T12:14:00.712Z,99.90
2023-05-03T12:15:04.177Z,99.90
2023-05-03T12:16:11.551Z,99.90
2023-05-03T12:17:15.989Z,99.90
2023-05-03T12:18:18.782Z,99.90
2023-05-03T12:19:32.212Z,99.90
2023-05-03T12:21:59.233Z,99.90
2023-05-03T12:23:09.839Z,99.90
2023-05-03T12:24:14.083Z,99.90
2023-05-03T12:25:16.802Z,99.90
2023-05-03T12:26:22.236Z,99.90
2023-05-03T12:28:26.283Z,99.90
2023-05-03T12:29:29.515Z,99.90
2023-05-03T12:30:33.863Z,99.90
2023-05-03T12:31:39.187Z,99.90
2023-05-03T12:32:44.049Z,99.90
2023-05-03T12:34:00.869Z,99.90
2023-05-03T12:35:14.116Z,99.90
2023-05-03T12:36:16.624Z,99.90
2023-05-03T12:37:21.275Z,99.90
2023-05-03T12:38:25.066Z,99.90
2023-05-03T12:39:27.582Z,99.90
2023-05-03T12:40:34.127Z,99.90
2023-05-03T12:42:43.385Z,99.90
2023-05-03T12:43:45.965Z,99.90
2023-05-03T12:44:48.360Z,99.90
2023-05-03T12:46:01.058Z,99.90
2023-05-03T12:47:16.203Z,99.90
2023-05-03T12:48:25.055Z,99.90
2023-05-03T12:49:27.327Z,99.90
2023-05-03T12:50:31.937Z,99.90
2023-05-03T12:51:34.306Z,99.90
2023-05-03T12:52:38.604Z,99.90
2023-05-03T12:53:41.020Z,99.90
2023-05-03T12:54:42.877Z,99.90
2023-05-03T12:55:45.273Z,99.90
2023-05-03T12:56:54.731Z,99.90
2023-05-03T12:58:22.605Z,99.90
2023-05-03T12:59:40.138Z,99.90
2023-05-03T13:00:46.581Z,99.90
2023-05-03T13:05:26.974Z,99.90
2023-05-03T13:06:42.251Z,99.90
2023-05-03T13:07:46.088Z,99.90
2023-05-03T13:08:50.114Z,99.90
2023-05-03T13:10:56.863Z,99.90
2023-05-03T13:11:59.569Z,99.90
2023-05-03T13:13:01.577Z,99.90
2023-05-03T13:14:03.624Z,99.90
2023-05-03T13:15:06.171Z,99.90
2023-05-03T13:16:09.234Z,99.90
2023-05-03T13:17:11.912Z,99.90
2023-05-03T13:18:14.405Z,99.90
2023-05-03T13:19:16.628Z,99.90
2023-05-03T13:20:20.259Z,99.90
2023-05-03T13:21:22.364Z,99.90
2023-05-03T13:22:24.092Z,99.90
2023-05-03T13:23:25.684Z,99.90
2023-05-03T13:24:27.272Z,99.90
2023-05-03T13:25:28.865Z,99.90
2023-05-03T13:26:31.066Z,99.90
2023-05-03T13:27:32.818Z,99.90
2023-05-03T13:28:34.472Z,99.90
2023-05-03T13:29:36.167Z,99.90
2023-05-03T13:30:37.743Z,99.90
2023-05-03T13:31:40.466Z,99.90
2023-05-03T13:32:42.254Z,99.90
2023-05-03T13:33:44.088Z,99.90
2023-05-03T13:34:45.823Z,99.90
2023-05-03T13:35:48.353Z,99.90
2023-05-03T13:36:49.980Z,99.90
2023-05-03T13:37:52.661Z,99.90
2023-05-03T13:38:54.386Z,99.90
2023-05-03T13:39:56.471Z,99.90
2023-05-03T13:40:58.039Z,99.90
2023-05-03T13:41:59.682Z,99.90
2023-05-03T13:43:01.269Z,99.90
2023-05-03T13:44:03.678Z,99.90
2023-05-03T13:45:05.673Z,99.90
2023-05-03T13:46:07.724Z,99.90
2023-05-03T13:47:09.458Z,99.90
2023-05-03T13:48:18.328Z,99.90
2023-05-03T13:49:21.255Z,99.90
2023-05-03T13:50:22.875Z,99.90
2023-05-03T13:51:25.610Z,99.90
2023-05-03T13:52:27.308Z,99.90
2023-05-03T13:53:28.905Z,99.90
2023-05-03T13:54:32.087Z,99.90
2023-05-03T13:55:33.887Z,99.90
2023-05-03T13:56:35.602Z,99.90
2023-05-03T13:57:37.248Z,99.90
2023-05-03T13:58:39.818Z,99.90
2023-05-03T13:59:41.553Z,99.90
2023-05-03T14:00:43.841Z,99.90
2023-05-03T14:01:46.091Z,99.90